Alex, Minnesota
Current Conditions -  °F | °C
As of 10:53 AM on Sunday 23 Nov 2014 (Local Time) from KAXN Reporting Station
Broken Clouds Broken Clouds  
Wind Chill: 32°   Ceiling: 8500
Heat Index: 37°   Visibility: 10mi
Dew Point: 33°   Wind: 7mph
Humidity: 86%   Direction: 280°W
Pressure: 29.46"   Gusts: NA
Location:  45.8551°N, 95.4333°W
Report Text: KAXN 231653Z AUTO 28006KT 10SM BKN085 BKN110 03/01 A2946 RMK AO2 SLP989 T00280006
Loading
Personal Weather Stations






























Interactive Weather Map New forecast layout! Learn more

10-Day Weather Forecast

Advertisements
Track Severe Weather on mobile